Time;durP1;ratioP1;P1;durP2;ratioP2;P2;SDS_P1;SDS_P2;PMS_P1;PMS_P2;Temp;Humidity;BMP_temperature;BMP_pressure;BME280_temperature;BME280_humidity;BME280_pressure;Samples;Min_cycle;Max_cycle;Signal;HPM_P1;HPM_P2
2022/01/31 00:02:17;;;;;;;25.15;5.05;;;5.90;99.90;;;;;;5112937;28;20023;-78
2022/01/31 00:04:42;;;;;;;23.80;5.20;;;6.00;99.90;;;;;;5112658;28;20107;-79
2022/01/31 00:07:10;;;;;;;23.75;4.80;;;6.00;99.90;;;;;;5113438;28;20047;-78
2022/01/31 00:09:38;;;;;;;14.02;4.97;;;6.00;99.90;;;;;;5113482;28;20039;-76
2022/01/31 00:12:08;;;;;;;19.33;4.30;;;6.00;99.90;;;;;;5112666;28;20019;-77
2022/01/31 00:14:39;;;;;;;27.27;5.18;;;5.90;99.90;;;;;;5113044;28;20102;-77
2022/01/31 00:17:05;;;;;;;15.10;4.43;;;5.90;99.90;;;;;;5112396;28;20031;-78
2022/01/31 00:19:32;;;;;;;23.63;4.97;;;5.90;99.90;;;;;;5113035;28;20027;-77
2022/01/31 00:21:58;;;;;;;19.85;4.97;;;5.80;99.90;;;;;;5113497;28;20027;-78
2022/01/31 00:24:24;;;;;;;21.60;6.85;;;5.80;99.90;;;;;;5111852;28;20574;-78
2022/01/31 00:26:49;;;;;;;24.38;6.18;;;5.80;99.90;;;;;;5113081;28;20107;-78
2022/01/31 00:29:15;;;;;;;26.50;6.22;;;5.80;99.90;;;;;;5113054;28;20039;-77
2022/01/31 00:31:47;;;;;;;14.70;6.15;;;5.80;99.90;;;;;;5112576;28;20103;-76
2022/01/31 00:34:12;;;;;;;15.25;5.75;;;5.80;99.90;;;;;;5126032;27;20034;-77
2022/01/31 00:36:38;;;;;;;16.23;6.03;;;5.70;99.90;;;;;;5133803;27;20024;-77
2022/01/31 00:39:04;;;;;;;21.80;6.20;;;5.70;99.90;;;;;;5124902;28;20118;-78
2022/01/31 00:41:30;;;;;;;21.27;8.00;;;5.70;99.90;;;;;;5121453;27;20080;-77
2022/01/31 00:44:20;;;;;;;25.90;6.80;;;5.70;99.90;;;;;;5123673;27;20039;-76
2022/01/31 00:46:48;;;;;;;22.77;8.40;;;5.70;99.90;;;;;;5116354;28;20168;-77
2022/01/31 00:52:04;;;;;;;22.58;8.27;;;5.60;99.90;;;;;;5087260;28;20038;-78
2022/01/31 00:54:30;;;;;;;18.30;6.53;;;5.60;99.90;;;;;;5118462;28;20019;-77
2022/01/31 00:56:55;;;;;;;28.13;6.63;;;5.60;99.90;;;;;;5118179;28;20030;-78
2022/01/31 00:59:21;;;;;;;24.15;6.25;;;5.70;99.90;;;;;;5116601;28;20023;-77
2022/01/31 01:01:47;;;;;;;18.67;7.03;;;5.60;99.90;;;;;;5117076;28;20047;-77
2022/01/31 01:04:13;;;;;;;26.83;8.00;;;5.70;99.90;;;;;;5117536;28;20501;-77
2022/01/31 01:06:39;;;;;;;29.10;5.90;;;5.60;99.90;;;;;;5117122;28;20020;-77
2022/01/31 01:09:05;;;;;;;22.10;7.07;;;5.60;99.90;;;;;;5118205;28;20020;-77
2022/01/31 01:11:31;;;;;;;25.05;6.25;;;5.70;99.90;;;;;;5117310;28;20375;-76
2022/01/31 01:13:56;;;;;;;14.65;5.10;;;5.70;99.90;;;;;;5116751;28;20031;-76
2022/01/31 01:16:22;;;;;;;21.65;7.20;;;5.70;99.90;;;;;;5116815;28;20470;-76
2022/01/31 01:18:48;;;;;;;19.83;6.13;;;5.70;99.90;;;;;;5117165;28;20023;-77
2022/01/31 01:21:13;;;;;;;15.55;6.10;;;5.80;99.90;;;;;;5116518;28;20051;-76
2022/01/31 01:23:39;;;;;;;22.65;5.78;;;5.70;99.90;;;;;;5116489;28;20035;-76
2022/01/31 01:26:04;;;;;;;17.13;5.18;;;5.70;99.90;;;;;;5116166;28;20022;-76
2022/01/31 01:28:30;;;;;;;22.33;4.70;;;5.70;99.90;;;;;;5115018;28;20501;-77
2022/01/31 01:30:56;;;;;;;12.70;5.20;;;5.70;99.90;;;;;;5116390;28;20379;-77
2022/01/31 01:33:23;;;;;;;19.85;5.72;;;5.80;99.90;;;;;;5116712;28;20054;-77
2022/01/31 01:35:51;;;;;;;10.40;3.72;;;5.80;99.90;;;;;;5116292;28;20028;-75
2022/01/31 01:38:18;;;;;;;15.60;5.72;;;5.70;99.90;;;;;;5116418;28;20028;-75
2022/01/31 01:40:46;;;;;;;10.02;4.93;;;5.80;99.90;;;;;;5117291;28;20024;-76
2022/01/31 01:43:13;;;;;;;16.88;5.07;;;5.80;99.90;;;;;;5115666;28;20040;-75
2022/01/31 01:45:41;;;;;;;24.70;4.18;;;5.80;99.90;;;;;;5116463;28;20042;-75
2022/01/31 01:48:08;;;;;;;9.60;3.72;;;5.80;99.90;;;;;;5115707;28;20032;-76
2022/01/31 01:50:35;;;;;;;12.00;3.63;;;5.90;99.90;;;;;;5115258;28;20034;-77
2022/01/31 01:53:02;;;;;;;6.82;3.35;;;5.90;99.90;;;;;;5117430;28;20063;-77
2022/01/31 01:55:31;;;;;;;8.65;3.95;;;5.90;99.90;;;;;;5115019;28;20044;-76
2022/01/31 01:57:57;;;;;;;9.70;3.85;;;5.90;99.90;;;;;;5115697;28;20080;-76
2022/01/31 02:00:27;;;;;;;12.50;3.30;;;5.90;99.90;;;;;;5115516;28;20110;-77
2022/01/31 02:02:54;;;;;;;16.13;4.35;;;5.90;99.90;;;;;;5115295;28;20047;-77
2022/01/31 02:05:21;;;;;;;8.02;2.70;;;6.00;99.90;;;;;;5115295;28;20475;-77
2022/01/31 02:07:47;;;;;;;10.88;3.20;;;6.10;99.90;;;;;;5115471;28;20123;-77
2022/01/31 02:10:14;;;;;;;13.02;3.30;;;6.20;99.90;;;;;;5114445;28;20103;-77
2022/01/31 02:12:45;;;;;;;13.00;5.05;;;6.20;99.90;;;;;;5115319;28;20024;-77
2022/01/31 02:15:12;;;;;;;11.70;2.85;;;6.20;99.90;;;;;;5115565;28;20028;-77
2022/01/31 02:17:39;;;;;;;16.08;3.00;;;6.30;99.90;;;;;;5114716;28;20027;-77
2022/01/31 02:20:08;;;;;;;21.90;3.83;;;6.40;99.90;;;;;;5115450;28;20034;-77
2022/01/31 02:22:35;;;;;;;10.10;3.15;;;6.90;99.90;;;;;;5115404;28;20027;-77
2022/01/31 02:25:01;;;;;;;20.05;3.20;;;6.70;99.90;;;;;;5115070;28;20024;-77
2022/01/31 02:27:28;;;;;;;28.83;4.38;;;6.80;99.90;;;;;;5114979;28;20414;-77
2022/01/31 02:29:54;;;;;;;13.43;2.53;;;6.90;99.90;;;;;;5115804;28;20042;-76
2022/01/31 02:32:22;;;;;;;25.23;3.85;;;7.00;99.90;;;;;;5114785;28;20414;-76
2022/01/31 02:34:49;;;;;;;12.98;2.92;;;7.10;99.90;;;;;;5115405;28;20020;-76
2022/01/31 02:37:15;;;;;;;13.75;3.17;;;7.10;99.90;;;;;;5114730;28;20046;-77
2022/01/31 02:39:40;;;;;;;6.13;1.98;;;7.20;99.90;;;;;;5114521;28;20475;-78
2022/01/31 02:42:06;;;;;;;15.13;2.33;;;7.30;99.90;;;;;;5115449;28;20030;-77
2022/01/31 02:44:33;;;;;;;15.32;2.28;;;7.30;99.90;;;;;;5114024;28;20035;-77
2022/01/31 02:46:58;;;;;;;4.05;1.92;;;7.30;99.90;;;;;;5114728;28;20055;-78
2022/01/31 02:49:29;;;;;;;9.85;1.75;;;7.20;99.90;;;;;;5114661;28;20058;-77
2022/01/31 02:51:59;;;;;;;6.55;1.70;;;7.20;99.90;;;;;;5114343;28;20037;-77
2022/01/31 02:54:26;;;;;;;17.27;2.58;;;7.20;99.90;;;;;;5114327;28;20491;-77
2022/01/31 02:56:52;;;;;;;15.35;3.50;;;7.30;99.90;;;;;;5120144;27;20039;-77
2022/01/31 02:59:18;;;;;;;6.80;2.03;;;7.30;99.90;;;;;;5113772;28;20019;-77
2022/01/31 03:01:43;;;;;;;9.93;2.80;;;7.30;99.90;;;;;;5114623;28;20062;-79
2022/01/31 03:04:09;;;;;;;15.10;2.65;;;7.30;99.90;;;;;;5114324;28;20165;-77
2022/01/31 03:06:37;;;;;;;17.42;4.20;;;7.30;99.90;;;;;;5113464;28;20403;-78
2022/01/31 03:09:03;;;;;;;12.57;2.38;;;7.30;99.90;;;;;;5114325;28;20028;-77
2022/01/31 03:11:29;;;;;;;10.73;2.22;;;7.30;99.90;;;;;;5114173;28;20073;-78
2022/01/31 03:13:54;;;;;;;8.88;2.55;;;7.30;99.90;;;;;;5115870;28;20051;-78
2022/01/31 03:16:20;;;;;;;11.57;2.60;;;7.30;99.90;;;;;;5113996;28;20088;-78
2022/01/31 03:18:45;;;;;;;10.75;2.08;;;7.20;99.90;;;;;;5113977;28;20038;-77
2022/01/31 03:21:11;;;;;;;19.80;3.05;;;7.30;99.90;;;;;;5112896;28;20030;-78
2022/01/31 03:23:37;;;;;;;15.73;1.98;;;7.20;99.90;;;;;;5115222;28;20544;-76
2022/01/31 03:26:02;;;;;;;8.98;1.52;;;7.20;99.90;;;;;;5115074;28;20095;-77
2022/01/31 03:28:28;;;;;;;10.95;2.03;;;7.20;99.90;;;;;;5113978;28;20058;-77
2022/01/31 03:30:56;;;;;;;10.27;1.77;;;7.10;99.90;;;;;;5114300;28;20027;-77
2022/01/31 03:33:21;;;;;;;12.57;3.53;;;7.00;99.90;;;;;;5114460;28;20405;-77
2022/01/31 03:35:47;;;;;;;5.55;1.20;;;7.10;99.90;;;;;;5114366;28;20026;-80
2022/01/31 03:38:12;;;;;;;12.88;1.63;;;7.00;99.90;;;;;;5114513;28;20030;-77
2022/01/31 03:40:41;;;;;;;12.75;2.17;;;7.00;99.90;;;;;;5114957;28;20055;-77
2022/01/31 03:43:06;;;;;;;17.92;2.60;;;7.00;99.90;;;;;;5113066;28;20125;-77
2022/01/31 03:45:34;;;;;;;15.50;2.08;;;7.00;99.90;;;;;;5113563;28;20051;-77
2022/01/31 03:48:02;;;;;;;8.45;1.25;;;7.10;99.90;;;;;;5112903;28;20035;-77
2022/01/31 03:50:27;;;;;;;16.02;1.80;;;7.10;99.90;;;;;;5113130;28;20035;-77
2022/01/31 03:52:53;;;;;;;11.52;1.88;;;7.10;99.90;;;;;;5113644;28;20119;-77
2022/01/31 03:55:20;;;;;;;6.93;1.67;;;7.10;99.90;;;;;;5113060;28;20024;-78
2022/01/31 03:57:46;;;;;;;6.53;2.75;;;7.10;99.90;;;;;;5113820;28;20028;-77
2022/01/31 04:00:14;;;;;;;7.78;1.25;;;7.10;99.90;;;;;;5113618;28;20128;-78
2022/01/31 04:02:40;;;;;;;11.07;1.30;;;7.10;99.90;;;;;;5113589;28;20482;-78
2022/01/31 04:05:07;;;;;;;6.47;1.63;;;7.10;99.90;;;;;;5114482;28;20046;-77
2022/01/31 04:07:33;;;;;;;10.07;2.35;;;7.10;99.90;;;;;;5113656;28;20016;-78
2022/01/31 04:09:59;;;;;;;12.90;1.90;;;7.10;99.90;;;;;;5112866;28;20023;-77
2022/01/31 04:12:24;;;;;;;13.73;2.47;;;7.20;99.90;;;;;;5113185;28;20027;-78
2022/01/31 04:14:50;;;;;;;11.13;3.38;;;7.20;99.90;;;;;;5113097;28;20047;-78
2022/01/31 04:17:19;;;;;;;16.17;2.33;;;7.10;99.90;;;;;;5111664;28;20391;-78
2022/01/31 04:19:45;;;;;;;8.57;1.73;;;7.10;99.90;;;;;;5115365;28;20383;-77
2022/01/31 04:22:14;;;;;;;18.58;2.55;;;7.10;99.90;;;;;;5113092;28;20023;-78
2022/01/31 04:24:41;;;;;;;12.55;2.00;;;7.20;99.90;;;;;;5112143;28;20161;-78
2022/01/31 04:27:08;;;;;;;10.38;2.13;;;7.20;99.90;;;;;;5112947;28;20098;-77
2022/01/31 04:29:38;;;;;;;12.45;1.98;;;7.20;99.90;;;;;;5113536;28;20034;-78
2022/01/31 04:32:05;;;;;;;6.47;1.92;;;7.10;99.90;;;;;;5113943;28;20378;-78
2022/01/31 04:34:33;;;;;;;15.43;4.00;;;7.10;99.90;;;;;;5113523;28;20041;-78
2022/01/31 04:36:59;;;;;;;6.47;1.75;;;7.10;99.90;;;;;;5114080;28;20027;-77
2022/01/31 04:39:27;;;;;;;16.60;2.45;;;7.20;99.90;;;;;;5113087;28;20058;-78
2022/01/31 04:41:52;;;;;;;9.50;2.03;;;7.20;99.90;;;;;;5114204;28;20092;-78
2022/01/31 04:44:19;;;;;;;13.07;2.03;;;7.20;99.90;;;;;;5112812;28;20390;-78
2022/01/31 04:46:51;;;;;;;17.35;2.40;;;7.20;99.90;;;;;;5113161;28;20019;-77
2022/01/31 04:49:19;;;;;;;17.38;2.05;;;7.20;99.90;;;;;;5113485;28;20028;-78
2022/01/31 04:51:44;;;;;;;16.88;2.70;;;7.10;99.90;;;;;;5112647;28;20031;-76
2022/01/31 04:54:10;;;;;;;8.98;2.08;;;7.10;99.90;;;;;;5112485;28;20238;-77
2022/01/31 04:56:38;;;;;;;12.98;2.25;;;7.10;99.90;;;;;;5113964;28;20024;-77
2022/01/31 04:59:03;;;;;;;11.43;2.53;;;7.10;99.90;;;;;;5113256;28;20107;-78
2022/01/31 05:01:30;;;;;;;13.00;1.40;;;7.10;99.90;;;;;;5113279;28;20078;-78
2022/01/31 05:03:55;;;;;;;16.80;1.65;;;7.10;99.90;;;;;;5113942;28;20035;-78
2022/01/31 05:06:28;;;;;;;16.42;2.50;;;7.10;99.90;;;;;;5113487;28;20027;-78
2022/01/31 05:08:53;;;;;;;21.67;2.10;;;7.00;99.90;;;;;;5114185;28;20367;-76
2022/01/31 05:11:19;;;;;;;9.50;1.83;;;6.90;99.90;;;;;;5112930;28;20028;-77
2022/01/31 05:13:46;;;;;;;7.82;1.95;;;6.80;99.90;;;;;;5113531;28;20027;-77
2022/01/31 05:16:11;;;;;;;7.80;1.60;;;6.60;99.90;;;;;;5112918;28;20081;-76
2022/01/31 05:18:38;;;;;;;11.85;1.88;;;6.50;99.90;;;;;;5114681;28;20031;-76
2022/01/31 05:21:05;;;;;;;14.68;1.65;;;6.40;99.90;;;;;;5112996;28;20020;-76
2022/01/31 05:23:31;;;;;;;13.60;1.45;;;6.30;99.90;;;;;;5112963;28;20043;-76
2022/01/31 05:25:57;;;;;;;13.93;2.10;;;6.10;99.90;;;;;;5113276;28;20020;-76
2022/01/31 05:28:22;;;;;;;8.82;1.95;;;6.10;99.90;;;;;;5115134;28;20055;-76
2022/01/31 05:30:48;;;;;;;7.97;1.55;;;6.10;99.90;;;;;;5120355;28;20035;-76
2022/01/31 05:33:13;;;;;;;22.83;2.42;;;6.10;99.90;;;;;;5116868;28;20110;-75
2022/01/31 05:35:39;;;;;;;4.93;1.60;;;6.10;99.90;;;;;;5115942;28;20471;-75
2022/01/31 05:38:05;;;;;;;18.23;2.35;;;6.10;99.90;;;;;;5116338;28;20020;-75
2022/01/31 05:40:33;;;;;;;15.88;2.95;;;6.10;99.90;;;;;;5115552;28;20075;-76
2022/01/31 05:42:58;;;;;;;11.27;1.58;;;6.20;99.90;;;;;;5116214;28;20034;-76
2022/01/31 05:45:24;;;;;;;15.85;2.10;;;6.30;99.90;;;;;;5116128;28;20028;-75
2022/01/31 05:47:50;;;;;;;9.98;2.38;;;6.30;99.90;;;;;;5115936;28;20380;-76
2022/01/31 05:50:16;;;;;;;6.78;1.58;;;6.40;99.90;;;;;;5116237;28;20035;-78
2022/01/31 05:52:42;;;;;;;7.95;1.73;;;6.40;99.90;;;;;;5116448;28;20043;-77
2022/01/31 05:55:08;;;;;;;24.23;2.75;;;6.50;99.90;;;;;;5116054;28;20031;-77
2022/01/31 05:57:33;;;;;;;12.88;2.60;;;6.50;99.90;;;;;;5116313;28;20020;-78
2022/01/31 05:59:59;;;;;;;9.38;2.28;;;6.50;99.90;;;;;;5115847;28;20054;-77
2022/01/31 06:02:25;;;;;;;16.05;1.85;;;6.40;99.90;;;;;;5115507;28;20034;-78
2022/01/31 06:04:50;;;;;;;7.68;1.65;;;6.40;99.90;;;;;;5116174;28;20360;-78
2022/01/31 06:07:16;;;;;;;21.80;3.03;;;6.50;99.90;;;;;;5116119;28;20020;-78
2022/01/31 06:09:41;;;;;;;15.95;3.13;;;6.40;99.90;;;;;;5114933;28;20403;-78
2022/01/31 06:12:10;;;;;;;22.52;2.95;;;6.40;99.90;;;;;;5115949;28;20026;-79
2022/01/31 06:14:35;;;;;;;8.50;2.13;;;6.40;99.90;;;;;;5115937;28;20366;-78
2022/01/31 06:17:01;;;;;;;18.75;3.33;;;6.40;99.90;;;;;;5115419;28;20027;-78
2022/01/31 06:19:27;;;;;;;9.23;2.28;;;6.40;99.90;;;;;;5115394;28;20028;-78
2022/01/31 06:21:52;;;;;;;20.55;2.30;;;6.40;99.90;;;;;;5115586;28;20034;-78
2022/01/31 06:24:18;;;;;;;16.23;2.17;;;6.40;99.90;;;;;;5114413;28;20035;-79
2022/01/31 06:26:43;;;;;;;14.43;2.75;;;6.50;99.90;;;;;;5114905;28;20486;-79
2022/01/31 06:29:09;;;;;;;18.70;2.95;;;6.50;99.90;;;;;;5115248;28;20084;-78
2022/01/31 06:31:35;;;;;;;33.42;4.43;;;6.50;99.90;;;;;;5114306;28;20072;-78
2022/01/31 06:34:01;;;;;;;19.75;3.72;;;6.60;99.90;;;;;;5115405;28;20038;-79
2022/01/31 06:36:28;;;;;;;20.80;3.60;;;6.60;99.90;;;;;;5113936;27;20032;-78
2022/01/31 06:38:54;;;;;;;22.58;3.33;;;6.60;99.90;;;;;;5113588;27;20062;-79
2022/01/31 06:41:19;;;;;;;12.65;2.78;;;6.70;99.90;;;;;;5118013;27;20447;-79
2022/01/31 06:43:46;;;;;;;17.15;4.30;;;6.70;99.90;;;;;;5113033;27;20040;-79
2022/01/31 06:46:13;;;;;;;25.75;2.90;;;6.70;99.90;;;;;;5113293;27;20020;-79
2022/01/31 06:48:39;;;;;;;22.77;3.33;;;6.70;99.90;;;;;;5113894;27;20023;-80
2022/01/31 06:51:05;;;;;;;20.77;2.97;;;6.70;99.90;;;;;;5112865;27;20086;-79
2022/01/31 06:53:30;;;;;;;11.07;2.28;;;6.70;99.90;;;;;;5113595;28;20051;-76
2022/01/31 06:55:57;;;;;;;13.80;4.22;;;6.50;99.90;;;;;;5113589;28;20031;-77
2022/01/31 06:58:24;;;;;;;26.00;4.20;;;6.40;99.90;;;;;;5114218;28;20030;-77
2022/01/31 07:00:50;;;;;;;18.25;3.60;;;6.10;99.90;;;;;;5114180;28;20046;-76
2022/01/31 07:03:15;;;;;;;17.65;2.53;;;6.00;99.90;;;;;;5112948;28;20030;-78
2022/01/31 07:05:42;;;;;;;19.98;3.20;;;5.90;99.90;;;;;;5112057;27;20472;-78
2022/01/31 07:08:08;;;;;;;18.40;3.05;;;5.80;99.90;;;;;;5113863;28;20039;-78
2022/01/31 07:10:34;;;;;;;27.55;2.88;;;5.80;99.90;;;;;;5114456;28;20475;-76
2022/01/31 07:13:03;;;;;;;15.52;2.85;;;5.70;99.90;;;;;;5114952;27;20027;-76
2022/01/31 07:15:31;;;;;;;16.63;3.08;;;5.70;99.90;;;;;;5117432;27;20184;-76
2022/01/31 07:18:02;;;;;;;25.52;3.40;;;5.80;99.90;;;;;;5115242;27;20026;-77
2022/01/31 07:20:40;;;;;;;15.48;2.17;;;5.80;99.90;;;;;;5111854;27;20497;-77
2022/01/31 07:23:16;;;;;;;27.08;4.13;;;5.80;99.90;;;;;;5113269;28;20039;-77
2022/01/31 07:25:42;;;;;;;33.63;4.13;;;5.90;99.90;;;;;;5113366;27;20072;-77
2022/01/31 07:28:13;;;;;;;26.52;3.15;;;5.90;99.90;;;;;;5114995;27;20401;-77
2022/01/31 07:30:39;;;;;;;;;;;5.90;99.90;;;;;;5112998;28;20597;-77
2022/01/31 07:33:09;;;;;;;17.38;3.50;;;5.90;99.90;;;;;;5115436;27;19919;-79
2022/01/31 07:35:34;;;;;;;23.88;5.30;;;5.90;99.90;;;;;;5113093;28;20019;-77
2022/01/31 07:38:00;;;;;;;27.90;3.42;;;5.90;99.90;;;;;;5116319;27;20084;-77
2022/01/31 07:40:26;;;;;;;23.90;2.70;;;5.90;99.90;;;;;;5117453;27;20033;-77
2022/01/31 07:42:51;;;;;;;37.10;5.60;;;5.90;99.90;;;;;;5112492;28;20020;-77
2022/01/31 07:45:17;;;;;;;23.60;3.03;;;6.00;99.90;;;;;;5116406;27;20539;-77
2022/01/31 07:47:46;;;;;;;14.63;3.08;;;6.00;99.90;;;;;;5112599;28;20011;-77
2022/01/31 07:50:13;;;;;;;24.50;4.35;;;5.90;99.90;;;;;;5115788;28;20442;-74
2022/01/31 07:52:38;;;;;;;22.80;3.60;;;5.90;99.90;;;;;;5112226;27;20030;-76
2022/01/31 07:55:04;;;;;;;19.40;3.10;;;5.80;99.90;;;;;;5112147;27;20023;-76
2022/01/31 07:57:30;;;;;;;27.25;3.75;;;5.80;99.90;;;;;;5110642;28;20019;-76
2022/01/31 07:59:55;;;;;;;38.65;4.45;;;5.80;99.90;;;;;;5110050;28;20037;-77
2022/01/31 08:02:21;;;;;;;26.88;3.28;;;5.80;99.90;;;;;;5114092;27;20035;-77
2022/01/31 08:04:47;;;;;;;20.35;3.78;;;5.80;99.90;;;;;;5111820;27;20036;-77
2022/01/31 08:07:12;;;;;;;24.98;3.97;;;5.90;99.90;;;;;;5111782;28;20080;-76
2022/01/31 08:09:39;;;;;;;29.33;3.42;;;5.90;99.90;;;;;;5112380;28;20035;-77
2022/01/31 08:12:05;;;;;;;39.88;4.28;;;6.00;99.90;;;;;;5113648;28;20027;-76
2022/01/31 08:14:31;;;;;;;26.33;3.30;;;5.90;99.90;;;;;;5112801;28;20036;-77
2022/01/31 08:16:57;;;;;;;24.98;3.75;;;6.00;99.90;;;;;;5113156;28;20020;-76
2022/01/31 08:19:22;;;;;;;25.90;2.60;;;6.00;99.90;;;;;;5113105;28;20058;-75
2022/01/31 08:21:48;;;;;;;27.75;3.33;;;6.10;99.90;;;;;;5114501;28;20027;-76
2022/01/31 08:24:13;;;;;;;34.38;3.58;;;6.00;99.90;;;;;;5113331;28;20092;-76
2022/01/31 08:26:39;;;;;;;12.27;2.47;;;6.10;99.90;;;;;;5113082;28;20027;-75
2022/01/31 08:29:19;;;;;;;11.43;2.28;;;6.00;99.90;;;;;;5113064;28;20035;-75
2022/01/31 08:31:46;;;;;;;17.42;1.75;;;5.80;99.90;;;;;;5117395;27;20053;-78
2022/01/31 08:36:42;;;;;;;2.25;0.95;;;5.60;99.90;;;;;;5115913;28;20023;-79
2022/01/31 08:39:16;;;;;;;9.73;2.20;;;5.60;99.90;;;;;;5113456;28;20550;-77
2022/01/31 08:41:42;;;;;;;23.17;2.20;;;5.60;99.90;;;;;;5114080;28;20361;-76
2022/01/31 08:44:11;;;;;;;19.15;2.75;;;5.60;99.90;;;;;;5113332;28;20066;-78
2022/01/31 08:46:41;;;;;;;3.63;1.33;;;5.70;99.90;;;;;;5132326;27;20039;-79
2022/01/31 08:49:07;;;;;;;32.20;2.58;;;5.70;99.90;;;;;;5133249;27;20033;-78
2022/01/31 08:51:33;;;;;;;20.65;1.75;;;5.70;99.90;;;;;;5132135;28;20023;-78
2022/01/31 08:53:59;;;;;;;6.03;2.17;;;5.70;99.90;;;;;;5133185;28;20371;-76
2022/01/31 08:56:24;;;;;;;16.33;2.15;;;5.70;99.90;;;;;;5132044;28;20074;-78
2022/01/31 08:58:50;;;;;;;4.45;1.25;;;5.80;99.90;;;;;;5131116;27;20382;-76
2022/01/31 09:01:20;;;;;;;21.58;1.80;;;5.80;99.90;;;;;;5131945;27;20479;-78
2022/01/31 09:06:24;;;;;;;11.18;1.95;;;5.80;99.90;;;;;;5135457;27;20470;-76
2022/01/31 09:08:50;;;;;;;20.10;3.58;;;5.80;99.90;;;;;;5136668;27;20114;-77
2022/01/31 09:11:16;;;;;;;17.15;3.53;;;5.90;99.90;;;;;;5135744;27;20023;-76
2022/01/31 09:13:42;;;;;;;29.48;3.22;;;5.80;99.90;;;;;;5129774;27;20367;-76
2022/01/31 09:16:08;;;;;;;21.23;3.55;;;5.80;99.90;;;;;;5135796;27;20025;-76
2022/01/31 09:18:35;;;;;;;21.55;2.40;;;5.80;99.90;;;;;;5135262;27;20043;-76
2022/01/31 09:21:01;;;;;;;17.50;1.33;;;5.80;99.90;;;;;;5128793;27;20031;-76
2022/01/31 09:23:28;;;;;;;27.52;4.03;;;5.80;99.90;;;;;;5130392;27;20031;-78
2022/01/31 09:25:58;;;;;;;26.65;3.53;;;5.80;99.90;;;;;;5135224;27;20451;-77
2022/01/31 09:28:25;;;;;;;28.98;3.85;;;5.70;99.90;;;;;;5135099;27;20023;-78
2022/01/31 09:30:52;;;;;;;28.95;5.50;;;5.60;99.90;;;;;;5128720;27;20129;-77
2022/01/31 09:33:18;;;;;;;16.58;2.25;;;5.70;99.90;;;;;;5123987;27;20050;-76
2022/01/31 09:35:44;;;;;;;45.90;6.10;;;5.60;99.90;;;;;;5125271;27;20076;-76
2022/01/31 09:38:16;;;;;;;29.00;4.35;;;5.60;99.90;;;;;;5131305;27;20110;-75
2022/01/31 09:40:42;;;;;;;43.55;5.03;;;5.60;99.90;;;;;;5127544;27;20023;-76
2022/01/31 09:48:32;;;;;;;24.70;5.72;;;5.70;99.90;;;;;;5123960;27;20035;-77
2022/01/31 09:51:09;;;;;;;32.38;5.47;;;5.70;99.90;;;;;;5120291;27;20016;-77
2022/01/31 09:53:38;;;;;;;38.17;5.03;;;5.90;99.90;;;;;;5125919;27;20035;-75
2022/01/31 09:56:08;;;;;;;34.60;5.18;;;5.90;99.90;;;;;;5127560;27;20012;-74
2022/01/31 09:58:34;;;;;;;31.38;5.40;;;5.90;99.90;;;;;;5129985;27;20394;-77
2022/01/31 10:01:07;;;;;;;29.95;5.78;;;6.00;99.90;;;;;;5121763;27;20092;-76
2022/01/31 10:03:42;;;;;;;44.28;6.55;;;6.00;99.90;;;;;;5128472;27;20039;-77
2022/01/31 10:06:19;;;;;;;33.60;5.95;;;5.90;99.90;;;;;;5128825;27;20513;-74
2022/01/31 10:08:44;;;;;;;37.53;5.45;;;5.90;99.90;;;;;;5134080;27;20471;-76
2022/01/31 10:11:27;;;;;;;43.28;8.10;;;5.90;99.90;;;;;;5134793;27;20031;-76
2022/01/31 10:16:44;;;;;;;32.25;5.57;;;6.00;99.90;;;;;;5133477;27;20042;-75
2022/01/31 10:19:10;;;;;;;37.10;6.90;;;5.90;99.90;;;;;;5134223;27;20555;-75
2022/01/31 10:21:56;;;;;;;36.05;6.50;;;5.90;99.90;;;;;;5135196;27;20031;-76
2022/01/31 10:24:23;;;;;;;49.60;7.82;;;6.00;99.90;;;;;;5132779;27;20039;-74
2022/01/31 10:26:48;;;;;;;26.60;4.65;;;5.90;99.90;;;;;;5120071;27;20079;-75
2022/01/31 10:29:17;;;;;;;40.35;6.18;;;5.90;99.90;;;;;;5118097;27;20098;-75
2022/01/31 10:32:04;;;;;;;47.97;6.82;;;5.90;99.90;;;;;;5122315;27;20015;-77
2022/01/31 10:34:35;;;;;;;49.08;6.97;;;6.00;99.90;;;;;;5119330;27;20035;-77
2022/01/31 10:37:10;;;;;;;29.05;6.00;;;6.00;99.90;;;;;;5119310;27;20020;-77
2022/01/31 10:53:08;;;;;;;47.22;4.88;;;6.00;99.90;;;;;;5133374;27;20058;-76
2022/01/31 10:55:33;;;;;;;33.25;5.07;;;5.90;99.90;;;;;;5131500;27;20058;-74
2022/01/31 10:58:04;;;;;;;48.92;6.38;;;5.90;99.90;;;;;;5122961;27;20054;-75
2022/01/31 11:00:38;;;;;;;48.97;5.93;;;5.90;99.90;;;;;;5117558;27;20504;-74
2022/01/31 11:03:32;;;;;;;42.97;6.88;;;5.80;99.90;;;;;;5119342;27;20039;-77
2022/01/31 11:06:04;;;;;;;31.67;7.82;;;5.70;99.90;;;;;;5121265;27;20060;-75
2022/01/31 11:08:30;;;;;;;54.67;6.65;;;5.80;99.90;;;;;;5121587;27;20031;-76
2022/01/31 11:10:59;;;;;;;53.58;7.63;;;5.80;99.90;;;;;;5123928;27;20366;-75
2022/01/31 11:13:26;;;;;;;49.67;5.60;;;5.80;99.90;;;;;;5125748;27;20435;-75
2022/01/31 11:15:53;;;;;;;36.95;6.75;;;5.70;99.90;;;;;;5120287;27;20022;-76
2022/01/31 11:18:27;;;;;;;47.90;7.97;;;5.70;99.90;;;;;;5120610;27;20022;-75
2022/01/31 11:20:58;;;;;;;51.13;9.40;;;5.70;99.90;;;;;;5120696;27;20020;-77
2022/01/31 11:23:27;;;;;;;56.78;8.18;;;5.80;99.90;;;;;;5126803;27;20034;-77
2022/01/31 11:25:57;;;;;;;45.25;6.57;;;5.90;99.90;;;;;;5123618;27;20382;-76
2022/01/31 11:28:28;;;;;;;53.72;7.80;;;5.90;99.90;;;;;;5124637;27;20129;-75
2022/01/31 11:30:54;;;;;;;47.15;7.72;;;5.90;99.90;;;;;;5121736;27;20024;-75
2022/01/31 11:33:20;;;;;;;30.83;5.68;;;5.90;99.90;;;;;;5121309;27;20458;-75
2022/01/31 11:35:49;;;;;;;40.22;6.47;;;5.90;99.90;;;;;;5127602;27;20472;-75
2022/01/31 11:38:18;;;;;;;43.60;6.30;;;5.90;99.90;;;;;;5122190;27;20609;-75
2022/01/31 11:40:44;;;;;;;42.95;6.30;;;5.80;99.90;;;;;;5123884;27;20022;-76
2022/01/31 11:43:11;;;;;;;44.75;6.70;;;5.80;99.90;;;;;;5121703;27;20640;-76
2022/01/31 11:45:40;;;;;;;45.03;6.20;;;5.80;99.90;;;;;;5118542;27;20031;-75
2022/01/31 11:48:23;;;;;;;34.28;5.15;;;5.80;99.90;;;;;;5120138;27;20026;-76
2022/01/31 11:50:55;;;;;;;58.30;6.78;;;5.70;99.90;;;;;;5121937;27;20102;-75
2022/01/31 11:53:37;;;;;;;45.28;6.80;;;5.80;99.90;;;;;;5116539;27;20110;-75
2022/01/31 11:56:08;;;;;;;52.47;9.07;;;5.70;99.90;;;;;;5120867;27;20085;-78
2022/01/31 11:58:42;;;;;;;43.75;7.38;;;5.80;99.90;;;;;;5115808;27;20079;-76
2022/01/31 12:01:08;;;;;;;48.92;7.38;;;5.70;99.90;;;;;;5114963;27;20645;-76
2022/01/31 12:03:36;;;;;;;39.38;7.45;;;5.70;99.90;;;;;;5118083;27;20089;-76
2022/01/31 12:06:09;;;;;;;39.83;6.63;;;5.70;99.90;;;;;;5120265;27;20026;-76
2022/01/31 12:08:42;;;;;;;56.72;6.88;;;5.80;99.90;;;;;;5119171;27;20040;-76
2022/01/31 12:11:15;;;;;;;63.85;9.07;;;5.80;99.90;;;;;;5122052;27;20024;-76
2022/01/31 12:13:51;;;;;;;58.97;7.80;;;5.70;99.90;;;;;;5114973;27;20027;-77
2022/01/31 12:16:44;;;;;;;44.00;8.43;;;5.80;99.90;;;;;;5112562;27;20080;-75
2022/01/31 12:22:00;;;;;;;49.17;8.00;;;5.80;99.90;;;;;;5115554;27;20015;-76
2022/01/31 12:24:37;;;;;;;48.85;7.88;;;5.80;99.90;;;;;;5117620;27;20024;-77
2022/01/31 12:27:16;;;;;;;50.03;6.40;;;5.70;99.90;;;;;;5122502;27;20514;-76
2022/01/31 12:29:51;;;;;;;44.72;6.05;;;5.80;99.90;;;;;;5125165;27;20073;-74
2022/01/31 12:32:36;;;;;;;57.80;7.72;;;5.70;99.90;;;;;;5120493;27;20023;-74
2022/01/31 12:35:08;;;;;;;52.80;7.88;;;5.70;99.90;;;;;;5118806;28;20023;-74
2022/01/31 12:37:38;;;;;;;76.40;8.93;;;5.80;99.90;;;;;;5116920;27;20471;-75
2022/01/31 12:40:09;;;;;;;64.72;9.82;;;5.70;99.90;;;;;;5122337;27;20030;-75
2022/01/31 12:45:39;;;;;;;59.60;7.68;;;5.80;99.90;;;;;;5118475;28;20035;-76
2022/01/31 12:48:19;;;;;;;56.75;7.72;;;5.70;99.90;;;;;;5118959;28;20034;-76
2022/01/31 12:50:50;;;;;;;45.42;7.72;;;5.70;99.90;;;;;;5117099;28;20027;-76
2022/01/31 12:53:22;;;;;;;63.05;10.10;;;5.70;99.90;;;;;;5121552;27;20117;-76
2022/01/31 12:56:00;;;;;;;45.70;8.48;;;5.80;99.90;;;;;;5119044;28;20051;-76
2022/01/31 12:58:33;;;;;;;64.35;7.40;;;5.80;99.90;;;;;;5120515;27;20410;-76
2022/01/31 13:01:10;;;;;;;63.15;7.68;;;5.80;99.90;;;;;;5119111;28;20130;-76
2022/01/31 13:03:38;;;;;;;47.97;7.45;;;5.90;99.90;;;;;;5117654;28;20102;-76
2022/01/31 13:06:22;;;;;;;49.67;7.50;;;5.90;99.90;;;;;;5119814;28;20027;-75
2022/01/31 13:08:48;;;;;;;72.72;10.40;;;5.90;99.90;;;;;;5120815;27;20031;-76
2022/01/31 13:11:14;;;;;;;48.38;9.38;;;6.00;99.90;;;;;;5120451;27;20044;-75
2022/01/31 13:13:40;;;;;;;69.10;8.32;;;6.00;99.90;;;;;;5115880;28;20483;-75
2022/01/31 13:16:08;;;;;;;49.53;8.82;;;6.00;99.90;;;;;;5118134;28;20055;-74
2022/01/31 13:18:34;;;;;;;66.30;11.07;;;6.00;99.90;;;;;;5118767;27;20028;-77
2022/01/31 13:21:03;;;;;;;33.42;5.25;;;6.00;99.90;;;;;;5117300;28;20015;-76
2022/01/31 13:23:29;;;;;;;47.92;6.88;;;6.00;99.90;;;;;;5118840;28;20035;-75
2022/01/31 13:26:00;;;;;;;48.53;7.72;;;6.00;99.90;;;;;;5118990;28;20022;-74
2022/01/31 13:28:25;;;;;;;45.20;6.80;;;6.10;99.90;;;;;;5118591;28;20106;-75